ADDS TAF Board (Experimental) INFO Settings
IDs: Format: Expanded Condensed

KDCA - Washington/National, VA, US

Issued at 2041 UTC 24 Jul 2016
Updated at 2219 UTC 24 Jul 2016
Time2152Z 24/23Z 25/00Z 25/01Z 25/02Z 25/03Z 25/04Z 25/05Z 25/06Z 25/07Z 25/08Z 25/09Z 25/10Z 25/11Z
Type OBS PRVL PRVL PRVL PRVL PRVL PRVL PRVL PRVL PRVL PRVL PRVL PRVL PRVL
VIS 10 >6 >6 >6 >6 >6 >6 >6 >6 >6 >6 >6 >6 >6
CIG 250 -- -- -- 50 50 50 50 50 50 50 50 50 100
Cover BKN SCT SCT SCT BKN BKN BKN BKN BKN BKN BKN BKN BKN BKN
FltCat VFR VFR VFR VFR VFR VFR VFR VFR VFR VFR VFR VFR VFR VFR
WX -- -- -- -- -- -- -- -- -- -- -- -- -- --
WDir 170 140 140 140 160 160 160 160 160 160 160 160 160 230
WSpd 9 5 5 5 5 5 5 5 5 5 5 5 5 4
WGst -- -- -- -- -- -- -- -- -- -- -- -- -- --
R01/19
XWnd -1 -3 -3 -3 -1 -1 -1 -1 -1 -1 -1 -1 -1 3
HWnd -9 -4 -4 -4 -5 -5 -5 -5 -5 -5 -5 -5 -5 -2
R04/22
XWnd -5 -5 -5 -5 -4 -4 -4 -4 -4 -4 -4 -4 -4 2
HWnd -7 -2 -2 -2 -3 -3 -3 -3 -3 -3 -3 -3 -3 -4
R15/33
XWnd -4 0 0 0 -1 -1 -1 -1 -1 -1 -1 -1 -1 -4
HWnd 8 5 5 5 5 5 5 5 5 5 5 5 5 0

Raw TAF
KDCA 242041Z 2421/2518 14005KT P6SM FEW050 SCT200
  FM250200 16005KT P6SM BKN050
  FM251100 23004KT P6SM BKN100
  FM251500 24005KT P6SM SCT060


Raw METAR
KDCA 242152Z 17009KT 10SM FEW050 FEW080 BKN250 35/21 A2994 RMK AO2 SLP139 T03500211
KDCA 242052Z 17006KT 10SM FEW075 BKN250 36/21 A2995 RMK AO2 SLP141 T03560206 56016
KDCA 241952Z 13004KT 10SM FEW070 BKN250 36/19 A2996 RMK AO2 SLP145 T03560194

METAR Board
Radar Display
Forecast Discussion

TAF Board Legend

Potential Impact
Threat None Slight Moderate High
Visibility (sm) ≥5.1 5.1>X≥3 3>X≥1 <1
Ceiling (100 ft) ≥30.1 30.1>X≥10 10>X≥5 <5
Wind Speed (kt) <10 10≤X<20 20≤X<30 ≥30
Wind Gust (kt) <15 15≤X<25 25≤X<35 ≥35
Weather No Wx Reported VCTS,-TS,-FZRA,SN TS,FZRA +TS,+FZRA,+SN